createdAt,value
2018-12-01T00:01:21.575Z,11.17
2018-12-01T00:03:48.761Z,9.63
2018-12-01T00:06:15.891Z,8.70
2018-12-01T00:08:43.059Z,14.00
2018-12-01T00:11:10.232Z,10.50
2018-12-01T00:13:37.402Z,9.67
2018-12-01T00:16:04.637Z,8.50
2018-12-01T00:18:31.805Z,8.90
2018-12-01T00:20:58.990Z,11.87
2018-12-01T00:23:26.164Z,8.70
2018-12-01T00:25:53.348Z,8.60
2018-12-01T00:28:20.527Z,13.27
2018-12-01T00:30:47.692Z,9.40
2018-12-01T00:33:14.877Z,11.17
2018-12-01T00:35:42.067Z,9.17
2018-12-01T00:38:09.223Z,14.17
2018-12-01T00:40:37.231Z,6.10
2018-12-01T00:43:04.444Z,12.40
2018-12-01T00:45:31.597Z,7.80
2018-12-01T00:47:58.765Z,6.57
2018-12-01T00:50:25.961Z,7.17
2018-12-01T00:52:53.437Z,9.50
2018-12-01T00:55:20.692Z,8.87
2018-12-01T00:57:47.857Z,12.93
2018-12-01T01:00:16.464Z,4.40
2018-12-01T01:02:47.940Z,7.40
2018-12-01T01:05:15.106Z,7.53
2018-12-01T01:07:42.358Z,5.13
2018-12-01T01:10:09.821Z,5.83
2018-12-01T01:12:36.976Z,6.83
2018-12-01T01:15:05.084Z,7.23
2018-12-01T01:17:32.248Z,6.93
2018-12-01T01:19:59.411Z,6.77
2018-12-01T01:22:26.583Z,7.23
2018-12-01T01:24:53.761Z,12.47
2018-12-01T01:27:20.948Z,10.33
2018-12-01T01:29:48.112Z,3.97
2018-12-01T01:32:15.288Z,7.80
2018-12-01T01:34:42.460Z,8.03
2018-12-01T01:37:09.623Z,5.40
2018-12-01T01:39:36.780Z,7.20
2018-12-01T01:42:04.308Z,10.60
2018-12-01T01:44:31.452Z,5.67
2018-12-01T01:46:58.675Z,6.17
2018-12-01T01:49:25.896Z,7.27
2018-12-01T01:51:53.073Z,6.40
2018-12-01T01:54:20.220Z,9.57
2018-12-01T01:56:47.381Z,6.27
2018-12-01T01:59:14.568Z,5.40
2018-12-01T02:01:41.758Z,4.17
2018-12-01T02:04:08.944Z,9.23
2018-12-01T02:06:36.112Z,7.43
2018-12-01T02:09:03.843Z,4.73
2018-12-01T02:11:31.001Z,8.23
2018-12-01T02:13:58.179Z,7.37
2018-12-01T02:16:25.440Z,5.30
2018-12-01T02:18:52.929Z,6.23
2018-12-01T02:21:20.088Z,7.47
2018-12-01T02:23:47.236Z,10.67
2018-12-01T02:26:14.381Z,8.67
2018-12-01T02:28:41.608Z,5.93
2018-12-01T02:31:08.759Z,6.77
2018-12-01T02:33:35.927Z,6.23
2018-12-01T02:36:03.085Z,10.17
2018-12-01T02:38:30.275Z,7.43
2018-12-01T02:40:57.446Z,6.43
2018-12-01T02:43:24.600Z,5.50
2018-12-01T02:46:55.904Z,8.30
2018-12-01T02:49:23.092Z,4.60
2018-12-01T02:51:50.243Z,8.03
2018-12-01T02:54:17.441Z,6.33
2018-12-01T02:56:44.596Z,8.97
2018-12-01T02:59:11.743Z,4.33
2018-12-01T03:01:38.895Z,8.07
2018-12-01T03:04:06.060Z,4.10
2018-12-01T03:06:33.207Z,7.00
2018-12-01T03:09:00.392Z,8.00
2018-12-01T03:11:27.549Z,3.80
2018-12-01T03:13:54.708Z,5.13
2018-12-01T03:16:21.944Z,5.30
2018-12-01T03:18:49.104Z,9.93
2018-12-01T03:21:16.249Z,3.57
2018-12-01T03:23:43.415Z,8.63
2018-12-01T03:26:10.596Z,6.00
2018-12-01T03:28:37.801Z,10.93
2018-12-01T03:31:04.940Z,8.30
2018-12-01T03:33:32.120Z,4.67
2018-12-01T03:35:59.279Z,7.30
2018-12-01T03:38:26.465Z,4.70
2018-12-01T03:40:53.618Z,5.13
2018-12-01T03:43:20.783Z,6.13
2018-12-01T03:45:47.931Z,9.63
2018-12-01T03:48:15.120Z,9.07
2018-12-01T03:50:42.293Z,6.43
2018-12-01T03:53:09.663Z,5.60
2018-12-01T03:55:36.847Z,7.10
2018-12-01T03:58:04.046Z,8.23
2018-12-01T04:00:31.981Z,5.13
2018-12-01T04:02:59.570Z,8.70
2018-12-01T04:05:26.811Z,5.70
2018-12-01T04:07:54.024Z,8.70
2018-12-01T04:10:21.192Z,7.87
2018-12-01T04:12:48.375Z,3.93
2018-12-01T04:15:15.641Z,6.73
2018-12-01T04:17:42.785Z,6.07
2018-12-01T04:20:09.944Z,4.47
2018-12-01T04:22:37.113Z,5.10
2018-12-01T04:25:04.332Z,7.30
2018-12-01T04:27:31.475Z,5.97
2018-12-01T04:29:58.639Z,7.40
2018-12-01T04:32:25.812Z,7.00
2018-12-01T04:34:52.981Z,4.27
2018-12-01T04:37:20.139Z,7.73
2018-12-01T04:39:47.331Z,6.63
2018-12-01T04:42:14.531Z,7.83
2018-12-01T04:44:41.697Z,6.77
2018-12-01T04:47:08.976Z,10.97
2018-12-01T04:49:36.161Z,6.30
2018-12-01T04:52:03.351Z,5.03
2018-12-01T04:54:30.528Z,4.70
2018-12-01T04:56:57.716Z,8.47
2018-12-01T04:59:24.865Z,6.50
2018-12-01T05:01:52.020Z,8.73
2018-12-01T05:04:19.183Z,5.00
2018-12-01T05:06:46.368Z,6.73
2018-12-01T05:09:13.531Z,8.77
2018-12-01T05:11:40.696Z,6.17
2018-12-01T05:14:07.865Z,6.67
2018-12-01T05:16:35.019Z,3.23
2018-12-01T05:19:02.172Z,7.00
2018-12-01T05:21:29.344Z,4.90
2018-12-01T05:23:56.516Z,11.60
2018-12-01T05:26:23.672Z,9.97
2018-12-01T05:28:50.912Z,5.00
2018-12-01T05:31:18.075Z,4.10
2018-12-01T05:33:45.237Z,5.87
2018-12-01T05:36:12.409Z,5.17
2018-12-01T05:38:39.550Z,6.30
2018-12-01T05:41:06.700Z,6.07
2018-12-01T05:43:33.864Z,5.50
2018-12-01T05:46:01.012Z,7.33
2018-12-01T05:48:28.179Z,3.43
2018-12-01T05:50:55.329Z,9.13
2018-12-01T05:53:22.500Z,4.90
2018-12-01T05:55:49.672Z,5.10
2018-12-01T05:58:16.824Z,6.77
2018-12-01T06:00:43.999Z,7.33
2018-12-01T06:03:11.156Z,5.27
2018-12-01T06:05:38.319Z,7.80
2018-12-01T06:08:06.219Z,6.30
2018-12-01T06:10:33.391Z,5.40
2018-12-01T06:13:01.139Z,7.20
2018-12-01T06:15:28.493Z,6.20
2018-12-01T06:17:55.648Z,7.03
2018-12-01T06:20:23.097Z,9.80
2018-12-01T06:22:50.260Z,6.20
2018-12-01T06:25:17.923Z,5.30
2018-12-01T06:27:45.089Z,3.70
2018-12-01T06:30:13.771Z,11.27
2018-12-01T06:32:40.930Z,8.50
2018-12-01T06:35:08.084Z,6.17
2018-12-01T06:37:35.266Z,8.13
2018-12-01T06:40:02.425Z,7.30
2018-12-01T06:42:29.580Z,5.23
2018-12-01T06:44:56.752Z,7.10
2018-12-01T06:47:23.972Z,5.40
2018-12-01T06:49:51.183Z,9.73
2018-12-01T06:52:18.396Z,6.60
2018-12-01T06:54:45.572Z,4.90
2018-12-01T06:57:12.743Z,4.00
2018-12-01T06:59:39.884Z,8.80
2018-12-01T07:02:07.224Z,8.10
2018-12-01T07:04:34.401Z,10.30
2018-12-01T07:07:01.560Z,8.77
2018-12-01T07:09:28.711Z,7.10
2018-12-01T07:11:55.925Z,9.70
2018-12-01T07:14:23.087Z,5.30
2018-12-01T07:16:50.252Z,8.60
2018-12-01T07:19:17.787Z,13.23
2018-12-01T07:21:44.984Z,10.10
2018-12-01T07:24:12.136Z,8.33
2018-12-01T07:26:39.337Z,11.37
2018-12-01T07:29:06.491Z,10.30
2018-12-01T07:31:33.658Z,8.13
2018-12-01T07:34:00.831Z,12.70
2018-12-01T07:36:27.998Z,11.27
2018-12-01T07:38:56.094Z,10.63
2018-12-01T07:41:22.581Z,8.70
2018-12-01T07:43:49.804Z,12.60
2018-12-01T07:46:16.948Z,12.03
2018-12-01T07:48:44.150Z,9.83
2018-12-01T07:51:11.346Z,12.33
2018-12-01T07:53:38.511Z,10.73
2018-12-01T07:56:05.732Z,8.40
2018-12-01T07:58:32.892Z,9.33
2018-12-01T08:01:00.068Z,10.03
2018-12-01T08:03:27.247Z,9.43
2018-12-01T08:05:54.400Z,12.40
2018-12-01T08:08:21.635Z,10.10
2018-12-01T08:10:48.796Z,13.80
2018-12-01T08:13:16.007Z,10.87
2018-12-01T08:15:43.184Z,13.93
2018-12-01T08:18:10.327Z,9.30
2018-12-01T08:20:37.543Z,8.83
2018-12-01T08:23:05.215Z,9.00
2018-12-01T08:25:32.407Z,14.00
2018-12-01T08:27:59.584Z,15.83
2018-12-01T08:30:27.244Z,15.20
2018-12-01T08:32:54.416Z,14.00
2018-12-01T08:35:21.725Z,15.53
2018-12-01T08:37:48.900Z,17.37
2018-12-01T08:40:16.920Z,13.87
2018-12-01T08:42:44.092Z,10.80
2018-12-01T08:45:11.280Z,9.10
2018-12-01T08:47:38.665Z,11.30
2018-12-01T08:50:09.422Z,9.80
2018-12-01T08:52:36.603Z,12.80
2018-12-01T08:55:03.826Z,10.60
2018-12-01T08:57:31.026Z,15.97
2018-12-01T08:59:58.188Z,9.93
2018-12-01T09:02:25.380Z,10.10
2018-12-01T09:04:52.592Z,10.53
2018-12-01T09:07:19.893Z,11.23
2018-12-01T09:09:47.053Z,8.67
2018-12-01T09:12:14.261Z,9.37
2018-12-01T09:14:41.372Z,12.00
2018-12-01T09:17:08.538Z,11.30
2018-12-01T09:19:35.680Z,11.47
2018-12-01T09:22:02.865Z,14.63
2018-12-01T09:24:30.107Z,11.50
2018-12-01T09:26:57.281Z,12.00
2018-12-01T09:29:24.443Z,12.40
2018-12-01T09:31:51.621Z,16.70
2018-12-01T09:34:18.775Z,13.23
2018-12-01T09:36:45.929Z,9.50
2018-12-01T09:39:13.111Z,11.57
2018-12-01T09:41:40.361Z,12.30
2018-12-01T09:44:07.524Z,16.43
2018-12-01T09:46:34.733Z,14.50
2018-12-01T09:49:01.905Z,10.07
2018-12-01T09:51:29.069Z,10.50
2018-12-01T09:53:56.219Z,9.20
2018-12-01T09:56:23.404Z,11.70
2018-12-01T09:58:50.612Z,16.33
2018-12-01T10:01:17.793Z,12.83
2018-12-01T10:03:44.953Z,23.10
2018-12-01T10:06:12.128Z,10.10
2018-12-01T10:08:39.303Z,14.00
2018-12-01T10:11:06.460Z,10.97
2018-12-01T10:13:33.728Z,9.53
2018-12-01T10:16:01.472Z,7.93
2018-12-01T10:18:28.648Z,8.77
2018-12-01T10:20:55.828Z,10.57
2018-12-01T10:23:22.980Z,11.97
2018-12-01T10:25:50.123Z,7.90
2018-12-01T10:28:17.300Z,11.90
2018-12-01T10:30:44.493Z,8.00
2018-12-01T10:33:11.635Z,10.50
2018-12-01T10:35:38.803Z,8.43
2018-12-01T10:38:08.995Z,9.13
2018-12-01T10:40:36.205Z,8.87
2018-12-01T10:43:03.373Z,8.27
2018-12-01T10:45:30.532Z,5.63
2018-12-01T10:47:57.711Z,7.43
2018-12-01T10:50:24.869Z,7.77
2018-12-01T10:52:52.523Z,10.10
2018-12-01T10:55:23.196Z,9.73
2018-12-01T10:57:50.717Z,4.50
2018-12-01T11:00:23.268Z,8.77
2018-12-01T11:03:00.785Z,5.43
2018-12-01T11:05:28.240Z,5.43
2018-12-01T11:07:55.393Z,4.90
2018-12-01T11:10:22.548Z,5.00
2018-12-01T11:12:49.745Z,3.67
2018-12-01T11:15:16.966Z,4.23
2018-12-01T11:17:44.105Z,4.13
2018-12-01T11:20:11.282Z,4.10
2018-12-01T11:22:38.499Z,2.80
2018-12-01T11:25:06.896Z,5.90
2018-12-01T11:27:34.093Z,2.53
2018-12-01T11:30:01.247Z,2.90
2018-12-01T11:32:28.388Z,2.97
2018-12-01T11:34:55.562Z,4.63
2018-12-01T11:37:22.748Z,2.17
2018-12-01T11:39:49.906Z,4.23
2018-12-01T11:42:17.063Z,4.33
2018-12-01T11:44:44.261Z,4.40
2018-12-01T11:47:11.437Z,3.20
2018-12-01T11:49:38.604Z,5.53
2018-12-01T11:52:05.780Z,11.23
2018-12-01T11:54:32.976Z,4.83
2018-12-01T11:57:00.149Z,4.50
2018-12-01T11:59:27.302Z,6.40
2018-12-01T12:01:54.495Z,4.20
2018-12-01T12:04:21.656Z,3.30
2018-12-01T12:06:48.836Z,3.40
2018-12-01T12:09:15.989Z,2.40
2018-12-01T12:11:43.152Z,2.93
2018-12-01T12:14:10.293Z,4.20
2018-12-01T12:16:37.451Z,2.30
2018-12-01T12:19:04.852Z,2.40
2018-12-01T12:21:32.032Z,2.40
2018-12-01T12:23:59.204Z,1.63
2018-12-01T12:26:27.381Z,2.87
2018-12-01T12:28:54.577Z,1.90
2018-12-01T12:31:21.776Z,6.00
2018-12-01T12:33:49.035Z,2.20
2018-12-01T12:36:16.218Z,1.97
2018-12-01T12:38:43.373Z,2.47
2018-12-01T12:41:10.552Z,1.97
2018-12-01T12:43:37.728Z,7.30
2018-12-01T12:46:04.896Z,2.20
2018-12-01T12:48:32.151Z,4.47
2018-12-01T12:50:59.360Z,4.47
2018-12-01T12:53:26.541Z,3.07
2018-12-01T12:55:53.712Z,2.67
2018-12-01T12:58:20.880Z,1.63
2018-12-01T13:00:48.045Z,4.63
2018-12-01T13:03:15.199Z,2.93
2018-12-01T13:05:42.841Z,1.50
2018-12-01T13:08:10.687Z,2.30
2018-12-01T13:10:37.643Z,1.60
2018-12-01T13:13:05.369Z,2.50
2018-12-01T13:15:32.602Z,1.70
2018-12-01T13:17:59.789Z,3.93
2018-12-01T13:20:26.952Z,4.50
2018-12-01T13:22:57.812Z,5.27
2018-12-01T13:25:24.946Z,3.70
2018-12-01T13:27:56.880Z,2.73
2018-12-01T13:30:25.025Z,2.83
2018-12-01T13:32:52.216Z,6.63
2018-12-01T13:35:19.526Z,3.60
2018-12-01T13:37:46.693Z,3.40
2018-12-01T13:40:15.393Z,1.50
2018-12-01T13:42:42.740Z,2.20
2018-12-01T13:45:10.456Z,4.60
2018-12-01T13:47:37.619Z,3.87
2018-12-01T13:50:07.512Z,2.70
2018-12-01T13:52:34.684Z,2.70
2018-12-01T13:55:01.871Z,3.10
2018-12-01T13:57:29.027Z,4.70
2018-12-01T13:59:56.183Z,3.40
2018-12-01T14:02:23.321Z,3.57
2018-12-01T14:04:50.480Z,5.53
2018-12-01T14:07:17.628Z,2.40
2018-12-01T14:09:44.827Z,2.17
2018-12-01T14:12:11.985Z,2.43
2018-12-01T14:14:39.140Z,3.30
2018-12-01T14:17:06.311Z,2.67
2018-12-01T14:19:33.611Z,3.47
2018-12-01T14:22:00.839Z,3.23
2018-12-01T14:24:28.044Z,1.70
2018-12-01T14:26:55.192Z,1.50
2018-12-01T14:29:22.329Z,2.63
2018-12-01T14:31:49.488Z,2.30
2018-12-01T14:34:16.639Z,4.13
2018-12-01T14:36:43.795Z,2.03
2018-12-01T14:39:10.945Z,2.70
2018-12-01T14:41:38.102Z,4.30
2018-12-01T14:44:05.231Z,2.10
2018-12-01T14:46:32.388Z,2.53
2018-12-01T14:48:59.515Z,3.70
2018-12-01T14:51:26.681Z,1.80
2018-12-01T14:53:53.872Z,2.70
2018-12-01T14:56:21.057Z,2.43
2018-12-01T14:58:48.210Z,3.43
2018-12-01T15:01:16.040Z,4.57
2018-12-01T15:03:43.253Z,2.93
2018-12-01T15:06:10.443Z,2.47
2018-12-01T15:08:37.600Z,3.47
2018-12-01T15:11:05.024Z,3.37
2018-12-01T15:13:32.172Z,6.10
2018-12-01T15:15:59.361Z,4.13
2018-12-01T15:18:26.501Z,4.50
2018-12-01T15:20:53.665Z,3.40
2018-12-01T15:23:20.828Z,3.60
2018-12-01T15:25:47.971Z,3.53
2018-12-01T15:28:15.222Z,3.63
2018-12-01T15:30:42.443Z,2.30
2018-12-01T15:33:14.244Z,5.40
2018-12-01T15:35:41.938Z,6.93
2018-12-01T15:38:09.680Z,5.60
2018-12-01T15:40:37.204Z,4.37
2018-12-01T15:43:04.689Z,3.27
2018-12-01T15:45:31.912Z,3.80
2018-12-01T15:47:59.068Z,6.30
2018-12-01T15:50:26.231Z,4.07
2018-12-01T15:52:54.000Z,8.97
2018-12-01T15:55:21.521Z,4.97
2018-12-01T15:57:48.691Z,6.77
2018-12-01T16:00:16.468Z,7.70
2018-12-01T16:02:43.667Z,6.83
2018-12-01T16:05:11.212Z,2.70
2018-12-01T16:07:38.414Z,3.40
2018-12-01T16:10:06.799Z,5.83
2018-12-01T16:12:33.951Z,5.13
2018-12-01T16:15:01.200Z,4.00
2018-12-01T16:17:28.349Z,6.53
2018-12-01T16:19:55.543Z,5.77
2018-12-01T16:22:22.716Z,6.10
2018-12-01T16:24:49.889Z,5.43
2018-12-01T16:27:17.004Z,4.90
2018-12-01T16:29:44.180Z,4.53
2018-12-01T16:32:11.341Z,7.93
2018-12-01T16:34:38.508Z,5.60
2018-12-01T16:37:05.676Z,4.87
2018-12-01T16:39:32.887Z,8.23
2018-12-01T16:42:00.068Z,7.50
2018-12-01T16:44:27.288Z,7.70
2018-12-01T16:46:54.439Z,9.87
2018-12-01T16:49:21.770Z,8.17
2018-12-01T16:51:48.900Z,6.93
2018-12-01T16:54:16.072Z,7.77
2018-12-01T16:56:43.232Z,6.60
2018-12-01T16:59:10.408Z,6.70
2018-12-01T17:01:37.602Z,9.70
2018-12-01T17:04:04.807Z,5.63
2018-12-01T17:06:31.975Z,6.20
2018-12-01T17:08:59.129Z,6.50
2018-12-01T17:11:26.284Z,9.23
2018-12-01T17:13:53.512Z,6.37
2018-12-01T17:16:20.787Z,6.77
2018-12-01T17:18:48.040Z,8.13
2018-12-01T17:21:15.196Z,9.23
2018-12-01T17:23:42.369Z,11.40
2018-12-01T17:26:09.539Z,8.30
2018-12-01T17:28:36.732Z,11.50
2018-12-01T17:31:03.913Z,6.20
2018-12-01T17:33:31.108Z,6.50
2018-12-01T17:35:58.391Z,4.80
2018-12-01T17:38:25.543Z,6.30
2018-12-01T17:40:54.769Z,8.10
2018-12-01T17:43:25.003Z,5.63
2018-12-01T17:45:52.171Z,5.90
2018-12-01T17:48:19.370Z,3.47
2018-12-01T17:50:46.536Z,7.97
2018-12-01T17:53:13.675Z,4.40
2018-12-01T17:55:40.879Z,8.00
2018-12-01T17:58:08.852Z,6.47
2018-12-01T18:00:36.004Z,6.83
2018-12-01T18:03:03.173Z,5.07
2018-12-01T18:05:31.136Z,8.87
2018-12-01T18:07:58.290Z,3.80
2018-12-01T18:10:25.452Z,4.80
2018-12-01T18:12:52.618Z,6.40
2018-12-01T18:15:19.783Z,3.67
2018-12-01T18:17:46.980Z,4.97
2018-12-01T18:20:16.659Z,5.47
2018-12-01T18:22:44.351Z,7.73
2018-12-01T18:25:11.543Z,4.80
2018-12-01T18:27:38.696Z,5.23
2018-12-01T18:30:08.883Z,5.83
2018-12-01T18:32:36.120Z,3.93
2018-12-01T18:35:03.314Z,5.77
2018-12-01T18:37:30.480Z,5.90
2018-12-01T18:39:57.620Z,2.93
2018-12-01T18:42:24.785Z,6.17
2018-12-01T18:44:51.938Z,3.37
2018-12-01T18:47:19.113Z,4.60
2018-12-01T18:49:46.250Z,4.63
2018-12-01T18:52:13.524Z,6.20
2018-12-01T18:54:40.712Z,4.70
2018-12-01T18:57:07.944Z,2.80
2018-12-01T18:59:35.088Z,5.10
2018-12-01T19:02:02.268Z,3.50
2018-12-01T19:04:29.407Z,5.30
2018-12-01T19:06:56.560Z,6.17
2018-12-01T19:09:23.712Z,3.03
2018-12-01T19:11:50.862Z,6.97
2018-12-01T19:14:18.012Z,5.47
2018-12-01T19:16:45.174Z,4.57
2018-12-01T19:19:12.312Z,7.47
2018-12-01T19:21:39.464Z,4.67
2018-12-01T19:24:06.610Z,5.63
2018-12-01T19:26:33.782Z,8.30
2018-12-01T19:29:00.924Z,6.70
2018-12-01T19:31:28.088Z,4.43
2018-12-01T19:33:55.227Z,4.23
2018-12-01T19:36:22.381Z,5.10
2018-12-01T19:38:49.544Z,5.27
2018-12-01T19:41:16.704Z,3.33
2018-12-01T19:43:43.856Z,5.07
2018-12-01T19:46:11.020Z,5.73
2018-12-01T19:48:38.177Z,6.83
2018-12-01T19:51:05.527Z,4.13
2018-12-01T19:53:32.704Z,4.67
2018-12-01T19:55:59.868Z,6.07
2018-12-01T19:58:27.711Z,5.33
2018-12-01T20:00:55.472Z,4.93
2018-12-01T20:03:23.129Z,6.73
2018-12-01T20:05:50.281Z,3.07
2018-12-01T20:08:17.976Z,4.90
2018-12-01T20:10:47.253Z,3.90
2018-12-01T20:13:20.559Z,2.73
2018-12-01T20:15:48.629Z,2.87
2018-12-01T20:18:16.685Z,3.20
2018-12-01T20:20:43.852Z,3.73
2018-12-01T20:23:11.001Z,3.93
2018-12-01T20:25:38.151Z,3.67
2018-12-01T20:28:05.345Z,4.13
2018-12-01T20:30:32.514Z,4.67
2018-12-01T20:32:59.689Z,2.60
2018-12-01T20:35:27.925Z,5.97
2018-12-01T20:37:56.460Z,3.63
2018-12-01T20:40:23.596Z,2.87
2018-12-01T20:42:50.771Z,4.47
2018-12-01T20:45:17.920Z,3.00
2018-12-01T20:47:45.092Z,4.93
2018-12-01T20:50:13.112Z,7.97
2018-12-01T20:52:40.259Z,8.03
2018-12-01T20:55:10.496Z,5.50
2018-12-01T20:57:37.732Z,5.53
2018-12-01T21:00:06.272Z,3.50
2018-12-01T21:02:33.420Z,3.40
2018-12-01T21:05:00.603Z,2.73
2018-12-01T21:07:27.750Z,2.80
2018-12-01T21:09:54.904Z,5.03
2018-12-01T21:12:22.072Z,2.70
2018-12-01T21:14:49.233Z,3.57
2018-12-01T21:17:16.381Z,2.90
2018-12-01T21:19:43.537Z,3.00
2018-12-01T21:22:10.707Z,2.03
2018-12-01T21:24:37.864Z,2.57
2018-12-01T21:27:05.136Z,3.07
2018-12-01T21:29:32.328Z,2.77
2018-12-01T21:31:59.484Z,4.83
2018-12-01T21:34:26.628Z,2.80
2018-12-01T21:36:53.777Z,3.23
2018-12-01T21:39:21.040Z,2.73
2018-12-01T21:41:48.179Z,2.70
2018-12-01T21:44:15.335Z,2.90
2018-12-01T21:46:42.503Z,2.63
2018-12-01T21:49:09.648Z,3.43
2018-12-01T21:51:36.797Z,2.60
2018-12-01T21:54:03.991Z,3.07
2018-12-01T21:56:31.143Z,2.90
2018-12-01T21:58:58.304Z,2.90
2018-12-01T22:01:25.480Z,2.40
2018-12-01T22:03:52.648Z,4.87
2018-12-01T22:06:19.880Z,2.90
2018-12-01T22:08:47.040Z,3.60
2018-12-01T22:11:14.201Z,3.53
2018-12-01T22:13:41.351Z,3.60
2018-12-01T22:16:08.921Z,2.37
2018-12-01T22:18:36.063Z,2.70
2018-12-01T22:21:03.216Z,2.00
2018-12-01T22:23:30.372Z,2.00
2018-12-01T22:25:57.545Z,1.80
2018-12-01T22:28:24.696Z,2.30
2018-12-01T22:30:52.320Z,1.93
2018-12-01T22:33:21.409Z,1.93
2018-12-01T22:35:48.612Z,2.40
2018-12-01T22:38:15.781Z,1.80
2018-12-01T22:40:43.152Z,1.83
2018-12-01T22:43:10.296Z,3.20
2018-12-01T22:45:37.493Z,1.93
2018-12-01T22:48:06.587Z,1.83
2018-12-01T22:50:33.749Z,2.80
2018-12-01T22:53:00.918Z,1.93
2018-12-01T22:55:28.829Z,1.97
2018-12-01T22:57:56.892Z,2.00
2018-12-01T23:00:26.903Z,1.90
2018-12-01T23:02:54.060Z,1.90
2018-12-01T23:05:21.213Z,2.10
2018-12-01T23:07:48.392Z,2.17
2018-12-01T23:10:16.023Z,2.10
2018-12-01T23:12:43.639Z,1.97
2018-12-01T23:15:11.364Z,2.20
2018-12-01T23:17:38.546Z,1.83
2018-12-01T23:20:09.053Z,3.37
2018-12-01T23:22:36.213Z,3.07
2018-12-01T23:25:03.400Z,2.00
2018-12-01T23:27:30.576Z,1.97
2018-12-01T23:29:57.737Z,2.00
2018-12-01T23:32:24.888Z,2.17
2018-12-01T23:34:53.288Z,2.17
2018-12-01T23:37:19.209Z,2.20
2018-12-01T23:39:46.389Z,3.10
2018-12-01T23:42:13.552Z,4.17
2018-12-01T23:44:40.684Z,3.30
2018-12-01T23:47:07.836Z,4.07
2018-12-01T23:49:34.976Z,2.80
2018-12-01T23:52:02.141Z,2.67
2018-12-01T23:54:29.304Z,1.97
2018-12-01T23:56:56.542Z,2.90
2018-12-01T23:59:23.678Z,2.13
